N303JN -KCRG
Flight info
| Callsign | N303JN |
|---|---|
| Flight time | N/A |
| Altitude | VFR/055 |
| Route | |
| Aircraft | K100/L-DOV/C |
Departure
| Time | N/A |
|---|---|
| Airport | - |
Arrival
| Time | 2026-04-20 14:45 |
|---|---|
| Airport | Jacksonville Executive at Craig Airport (KCRG) |
| Time | Latitude | Longitude | Altitude | Speed | Heading |
|---|---|---|---|---|---|
| 2026-04-20 14:12 | 28.94271 | -82.13041 | 5519 ft | 165 kts | 18° |
| 2026-04-20 14:12 | 28.95334 | -82.12611 | 5520 ft | 164 kts | 18° |
| 2026-04-20 14:12 | 28.96405 | -82.12178 | 5521 ft | 163 kts | 18° |
| 2026-04-20 14:12 | 28.97484 | -82.11743 | 5521 ft | 165 kts | 18° |
| 2026-04-20 14:13 | 28.98566 | -82.11306 | 5523 ft | 165 kts | 19° |
| 2026-04-20 14:13 | 28.99645 | -82.10869 | 5524 ft | 164 kts | 18° |
| 2026-04-20 14:13 | 29.00728 | -82.10432 | 5523 ft | 165 kts | 18° |
| 2026-04-20 14:13 | 29.01815 | -82.09993 | 5521 ft | 166 kts | 18° |
| 2026-04-20 14:14 | 29.02897 | -82.09554 | 5521 ft | 164 kts | 18° |
| 2026-04-20 14:14 | 29.03972 | -82.09120 | 5522 ft | 163 kts | 18° |
| 2026-04-20 14:14 | 29.05037 | -82.08691 | 5523 ft | 164 kts | 18° |
| 2026-04-20 14:14 | 29.06125 | -82.08249 | 5524 ft | 163 kts | 18° |
| 2026-04-20 14:15 | 29.07197 | -82.07815 | 5525 ft | 163 kts | 18° |
| 2026-04-20 14:15 | 29.08273 | -82.07381 | 5525 ft | 165 kts | 18° |
| 2026-04-20 14:15 | 29.09355 | -82.06942 | 5526 ft | 165 kts | 18° |
| 2026-04-20 14:15 | 29.10422 | -82.06509 | 5527 ft | 165 kts | 18° |
| 2026-04-20 14:16 | 29.11507 | -82.06071 | 5525 ft | 166 kts | 19° |
| 2026-04-20 14:16 | 29.12601 | -82.05626 | 5525 ft | 166 kts | 18° |
| 2026-04-20 14:16 | 29.13689 | -82.05184 | 5527 ft | 165 kts | 18° |
| 2026-04-20 14:16 | 29.14771 | -82.04746 | 5523 ft | 165 kts | 18° |
| 2026-04-20 14:17 | 29.15856 | -82.04308 | 5526 ft | 165 kts | 18° |
| 2026-04-20 14:17 | 29.16935 | -82.03869 | 5527 ft | 164 kts | 18° |
| 2026-04-20 14:17 | 29.18023 | -82.03428 | 5526 ft | 166 kts | 18° |
| 2026-04-20 14:17 | 29.19115 | -82.02985 | 5527 ft | 166 kts | 18° |
| 2026-04-20 14:18 | 29.20201 | -82.02544 | 5525 ft | 165 kts | 18° |
| 2026-04-20 14:18 | 29.21283 | -82.02107 | 5524 ft | 165 kts | 18° |
| 2026-04-20 14:18 | 29.22366 | -82.01668 | 5523 ft | 165 kts | 18° |
| 2026-04-20 14:18 | 29.23447 | -82.01229 | 5523 ft | 164 kts | 18° |
| 2026-04-20 14:19 | 29.24523 | -82.00791 | 5527 ft | 164 kts | 18° |
| 2026-04-20 14:19 | 29.25581 | -82.00363 | 5527 ft | 164 kts | 18° |
| 2026-04-20 14:19 | 29.26665 | -81.99925 | 5534 ft | 166 kts | 18° |
| 2026-04-20 14:19 | 29.27755 | -81.99477 | 5524 ft | 166 kts | 18° |
| 2026-04-20 14:20 | 29.28840 | -81.99037 | 5521 ft | 165 kts | 18° |
| 2026-04-20 14:20 | 29.29925 | -81.98596 | 5520 ft | 166 kts | 18° |
| 2026-04-20 14:20 | 29.31002 | -81.98156 | 5520 ft | 163 kts | 18° |
| 2026-04-20 14:20 | 29.32068 | -81.97725 | 5518 ft | 162 kts | 18° |
| 2026-04-20 14:21 | 29.33141 | -81.97288 | 5524 ft | 165 kts | 18° |
| 2026-04-20 14:21 | 29.34220 | -81.96850 | 5523 ft | 164 kts | 18° |
| 2026-04-20 14:21 | 29.35276 | -81.96416 | 5518 ft | 163 kts | 18° |
| 2026-04-20 14:21 | 29.36344 | -81.95983 | 5521 ft | 163 kts | 18° |
| 2026-04-20 14:22 | 29.37409 | -81.95547 | 5524 ft | 162 kts | 18° |
| 2026-04-20 14:22 | 29.38467 | -81.95114 | 5520 ft | 161 kts | 18° |
| 2026-04-20 14:22 | 29.39527 | -81.94684 | 5520 ft | 162 kts | 18° |
| 2026-04-20 14:22 | 29.40589 | -81.94252 | 5521 ft | 162 kts | 18° |
| 2026-04-20 14:23 | 29.41644 | -81.93822 | 5519 ft | 161 kts | 18° |
| 2026-04-20 14:23 | 29.42702 | -81.93391 | 5514 ft | 162 kts | 19° |
| 2026-04-20 14:23 | 29.43763 | -81.92959 | 5517 ft | 162 kts | 18° |
| 2026-04-20 14:23 | 29.44821 | -81.92526 | 5517 ft | 161 kts | 18° |
| 2026-04-20 14:24 | 29.45876 | -81.92095 | 5521 ft | 161 kts | 19° |
| 2026-04-20 14:24 | 29.46941 | -81.91662 | 5530 ft | 162 kts | 18° |
| 2026-04-20 14:24 | 29.48005 | -81.91227 | 5530 ft | 162 kts | 18° |
| 2026-04-20 14:24 | 29.49068 | -81.90792 | 5529 ft | 162 kts | 18° |
| 2026-04-20 14:25 | 29.50136 | -81.90359 | 5527 ft | 164 kts | 18° |
| 2026-04-20 14:25 | 29.51209 | -81.89919 | 5524 ft | 164 kts | 19° |
| 2026-04-20 14:25 | 29.52273 | -81.89481 | 5523 ft | 162 kts | 18° |
| 2026-04-20 14:25 | 29.53323 | -81.89055 | 5526 ft | 162 kts | 18° |
| 2026-04-20 14:26 | 29.54393 | -81.88619 | 5529 ft | 163 kts | 18° |
| 2026-04-20 14:26 | 29.55455 | -81.88184 | 5527 ft | 161 kts | 18° |
| 2026-04-20 14:26 | 29.56510 | -81.87751 | 5527 ft | 161 kts | 18° |
| 2026-04-20 14:26 | 29.57569 | -81.87320 | 5535 ft | 162 kts | 19° |
| 2026-04-20 14:27 | 29.58636 | -81.86879 | 5528 ft | 162 kts | 18° |
| 2026-04-20 14:27 | 29.59691 | -81.86450 | 5529 ft | 161 kts | 18° |
| 2026-04-20 14:27 | 29.60746 | -81.86022 | 5529 ft | 161 kts | 18° |
| 2026-04-20 14:27 | 29.61797 | -81.85591 | 5529 ft | 160 kts | 18° |
| 2026-04-20 14:28 | 29.62841 | -81.85162 | 5536 ft | 159 kts | 19° |
| 2026-04-20 14:28 | 29.63892 | -81.84733 | 5536 ft | 161 kts | 19° |
| 2026-04-20 14:28 | 29.64591 | -81.84448 | 5536 ft | 161 kts | 19° |
| 2026-04-20 14:28 | 29.65645 | -81.84013 | 5537 ft | 160 kts | 19° |
| 2026-04-20 14:29 | 29.66695 | -81.83582 | 5529 ft | 160 kts | 19° |
| 2026-04-20 14:29 | 29.67753 | -81.83150 | 5533 ft | 163 kts | 19° |
| 2026-04-20 14:29 | 29.68817 | -81.82712 | 5532 ft | 161 kts | 18° |
| 2026-04-20 14:29 | 29.70210 | -81.82142 | 5537 ft | 160 kts | 19° |
| 2026-04-20 14:30 | 29.70917 | -81.81853 | 5535 ft | 160 kts | 18° |
| 2026-04-20 14:30 | 29.71962 | -81.81427 | 5534 ft | 159 kts | 18° |
| 2026-04-20 14:30 | 29.72983 | -81.81005 | 5533 ft | 157 kts | 18° |
| 2026-04-20 14:30 | 29.74016 | -81.80582 | 5534 ft | 158 kts | 18° |
| 2026-04-20 14:31 | 29.75058 | -81.80155 | 5539 ft | 160 kts | 19° |
| 2026-04-20 14:31 | 29.76110 | -81.79720 | 5536 ft | 160 kts | 19° |
| 2026-04-20 14:31 | 29.77167 | -81.79286 | 5535 ft | 161 kts | 19° |
| 2026-04-20 14:31 | 29.78225 | -81.78855 | 5536 ft | 162 kts | 18° |
| 2026-04-20 14:32 | 29.79292 | -81.78414 | 5534 ft | 163 kts | 19° |
| 2026-04-20 14:32 | 29.80361 | -81.77971 | 5537 ft | 163 kts | 19° |
| 2026-04-20 14:32 | 29.81424 | -81.77539 | 5538 ft | 162 kts | 19° |
| 2026-04-20 14:32 | 29.82484 | -81.77104 | 5536 ft | 161 kts | 19° |
| 2026-04-20 14:33 | 29.83533 | -81.76672 | 5535 ft | 159 kts | 18° |
| 2026-04-20 14:33 | 29.84579 | -81.76243 | 5535 ft | 160 kts | 19° |
| 2026-04-20 14:33 | 29.85628 | -81.75809 | 5530 ft | 160 kts | 18° |
| 2026-04-20 14:33 | 29.86675 | -81.75375 | 5535 ft | 159 kts | 19° |
| 2026-04-20 14:34 | 29.87722 | -81.74945 | 5535 ft | 160 kts | 19° |
| 2026-04-20 14:34 | 29.88776 | -81.74513 | 5537 ft | 160 kts | 19° |
| 2026-04-20 14:34 | 29.89826 | -81.74078 | 5537 ft | 160 kts | 19° |
| 2026-04-20 14:34 | 29.90870 | -81.73648 | 5536 ft | 159 kts | 19° |
| 2026-04-20 14:35 | 29.91915 | -81.73220 | 5537 ft | 160 kts | 19° |
| 2026-04-20 14:35 | 29.92959 | -81.72789 | 5538 ft | 158 kts | 19° |
| 2026-04-20 14:35 | 29.93991 | -81.72363 | 5540 ft | 157 kts | 19° |
| 2026-04-20 14:35 | 29.95029 | -81.71936 | 5542 ft | 159 kts | 19° |
| 2026-04-20 14:36 | 29.96075 | -81.71506 | 5543 ft | 159 kts | 19° |
| 2026-04-20 14:36 | 29.97113 | -81.71075 | 5542 ft | 158 kts | 19° |
| 2026-04-20 14:36 | 29.98133 | -81.70655 | 5544 ft | 158 kts | 19° |
| 2026-04-20 14:36 | 29.99176 | -81.70225 | 5499 ft | 157 kts | 19° |
| 2026-04-20 14:37 | 30.00159 | -81.69816 | 5424 ft | 146 kts | 19° |
| 2026-04-20 14:37 | 30.01102 | -81.69429 | 5343 ft | 142 kts | 19° |
| 2026-04-20 14:37 | 30.02023 | -81.69053 | 5261 ft | 139 kts | 19° |
| 2026-04-20 14:37 | 30.02921 | -81.68686 | 5185 ft | 136 kts | 19° |
| 2026-04-20 14:38 | 30.03808 | -81.68318 | 5058 ft | 134 kts | 20° |
| 2026-04-20 14:38 | 30.04674 | -81.67959 | 4926 ft | 131 kts | 20° |
| 2026-04-20 14:38 | 30.05528 | -81.67607 | 4796 ft | 129 kts | 21° |
| 2026-04-20 14:38 | 30.06370 | -81.67259 | 4668 ft | 127 kts | 22° |
| 2026-04-20 14:39 | 30.07196 | -81.66917 | 4539 ft | 126 kts | 22° |
| 2026-04-20 14:39 | 30.08023 | -81.66576 | 4410 ft | 126 kts | 22° |
| 2026-04-20 14:39 | 30.08850 | -81.66234 | 4286 ft | 126 kts | 24° |
| 2026-04-20 14:39 | 30.09673 | -81.65892 | 4165 ft | 125 kts | 24° |
| 2026-04-20 14:40 | 30.10489 | -81.65555 | 4036 ft | 124 kts | 25° |
| 2026-04-20 14:40 | 30.11300 | -81.65218 | 3911 ft | 124 kts | 24° |
| 2026-04-20 14:40 | 30.12111 | -81.64883 | 3788 ft | 123 kts | 24° |
| 2026-04-20 14:40 | 30.12916 | -81.64550 | 3664 ft | 122 kts | 25° |
| 2026-04-20 14:41 | 30.13715 | -81.64220 | 3540 ft | 127 kts | 25° |
| 2026-04-20 14:41 | 30.14607 | -81.63843 | 3431 ft | 144 kts | 25° |
| 2026-04-20 14:41 | 30.15564 | -81.63443 | 3312 ft | 151 kts | 24° |
| 2026-04-20 14:41 | 30.16561 | -81.63034 | 3191 ft | 152 kts | 24° |
| 2026-04-20 14:42 | 30.17562 | -81.62620 | 3068 ft | 154 kts | 24° |
| 2026-04-20 14:42 | 30.18578 | -81.62200 | 2939 ft | 155 kts | 24° |
| 2026-04-20 14:42 | 30.19590 | -81.61784 | 2814 ft | 154 kts | 23° |
| 2026-04-20 14:42 | 30.20593 | -81.61367 | 2685 ft | 149 kts | 23° |
| 2026-04-20 14:43 | 30.21497 | -81.60991 | 2530 ft | 124 kts | 23° |
| 2026-04-20 14:43 | 30.22232 | -81.60688 | 2386 ft | 103 kts | 24° |
| 2026-04-20 14:43 | 30.22861 | -81.60428 | 2232 ft | 92 kts | 24° |
| 2026-04-20 14:43 | 30.23450 | -81.60180 | 2045 ft | 91 kts | 25° |
| 2026-04-20 14:44 | 30.24051 | -81.59930 | 1827 ft | 91 kts | 24° |
| 2026-04-20 14:44 | 30.24639 | -81.59688 | 1620 ft | 88 kts | 25° |
| 2026-04-20 14:44 | 30.25216 | -81.59450 | 1411 ft | 89 kts | 22° |
| 2026-04-20 14:44 | 30.25798 | -81.59209 | 1212 ft | 89 kts | 25° |
| 2026-04-20 14:45 | 30.26372 | -81.58965 | 1078 ft | 84 kts | 21° |
| 2026-04-20 14:45 | 30.26894 | -81.58752 | 1042 ft | 79 kts | 26° |
| 2026-04-20 14:45 | 30.27310 | -81.58363 | 1006 ft | 68 kts | 46° |
| 2026-04-20 14:45 | 30.27588 | -81.58048 | 995 ft | 45 kts | 37° |
| 2026-04-20 14:46 | 30.27887 | -81.57820 | 946 ft | 75 kts | 34° |
| 2026-04-20 14:46 | 30.28320 | -81.57301 | 994 ft | 100 kts | 52° |
| 2026-04-20 14:46 | 30.28737 | -81.56722 | 987 ft | 85 kts | 46° |
| 2026-04-20 14:46 | 30.29133 | -81.56268 | 921 ft | 80 kts | 47° |
| 2026-04-20 14:47 | 30.29527 | -81.55803 | 761 ft | 83 kts | 46° |
| 2026-04-20 14:47 | 30.29946 | -81.55320 | 652 ft | 83 kts | 44° |
| 2026-04-20 14:47 | 30.30342 | -81.54882 | 586 ft | 75 kts | 44° |
| 2026-04-20 14:48 | 30.31006 | -81.54072 | 477 ft | 69 kts | 46° |
| 2026-04-20 14:48 | 30.31340 | -81.53654 | 460 ft | 72 kts | 46° |
| 2026-04-20 14:48 | 30.31684 | -81.53267 | 475 ft | 65 kts | 46° |
| 2026-04-20 14:48 | 30.31977 | -81.52916 | 355 ft | 54 kts | 43° |
| 2026-04-20 14:49 | 30.32211 | -81.52623 | 237 ft | 55 kts | 37° |
| 2026-04-20 14:49 | 30.32567 | -81.52286 | 236 ft | 73 kts | 50° |
| 2026-04-20 14:49 | 30.32849 | -81.51945 | 59 ft | 39 kts | 34° |
| 2026-04-20 14:49 | 30.33000 | -81.51780 | 45 ft | 31 kts | 46° |
| 2026-04-20 14:50 | 30.33103 | -81.51676 | 45 ft | 0 kts | 337° |
| 2026-04-20 14:50 | 30.32866 | -81.51928 | 46 ft | 0 kts | 30° |
| 2026-04-20 14:50 | 30.32922 | -81.51908 | 45 ft | 25 kts | 314° |
| 2026-04-20 14:51 | 30.32977 | -81.51984 | 45 ft | 7 kts | 327° |
| 2026-04-20 14:51 | 30.33054 | -81.51933 | 46 ft | 22 kts | 41° |
| 2026-04-20 14:51 | 30.33197 | -81.51776 | 46 ft | 30 kts | 46° |
| 2026-04-20 14:51 | 30.33333 | -81.51617 | 45 ft | 25 kts | 43° |
| 2026-04-20 14:52 | 30.33395 | -81.51554 | 45 ft | 2 kts | 23° |
| 2026-04-20 14:52 | 30.33472 | -81.51583 | 44 ft | 2 kts | 344° |
| 2026-04-20 14:52 | 30.33487 | -81.51589 | 44 ft | 0 kts | 327° |